createdAt,value
2023-04-27T00:01:41.414Z,6.65
2023-04-27T00:04:08.456Z,4.93
2023-04-27T00:06:35.452Z,12.10
2023-04-27T00:09:02.399Z,8.68
2023-04-27T00:11:29.507Z,9.77
2023-04-27T00:13:56.814Z,10.93
2023-04-27T00:16:23.723Z,9.13
2023-04-27T00:18:50.928Z,8.35
2023-04-27T00:21:17.852Z,10.93
2023-04-27T00:23:44.680Z,5.82
2023-04-27T00:26:11.683Z,8.65
2023-04-27T00:28:39.933Z,6.85
2023-04-27T00:31:07.040Z,12.05
2023-04-27T00:33:33.875Z,8.63
2023-04-27T00:36:01.686Z,11.23
2023-04-27T00:38:29.455Z,13.25
2023-04-27T00:41:04.330Z,8.32
2023-04-27T00:43:31.494Z,6.43
2023-04-27T00:45:59.739Z,6.68
2023-04-27T00:48:26.888Z,5.28
2023-04-27T00:50:54.311Z,6.10
2023-04-27T00:53:21.634Z,7.28
2023-04-27T00:55:50.145Z,5.97
2023-04-27T00:58:16.977Z,5.25
2023-04-27T01:00:44.140Z,6.00
2023-04-27T01:03:11.495Z,8.27
2023-04-27T01:05:39.190Z,5.50
2023-04-27T01:08:08.003Z,7.95
2023-04-27T01:10:34.938Z,9.10
2023-04-27T01:13:02.448Z,6.82
2023-04-27T01:15:31.176Z,10.20
2023-04-27T01:18:01.950Z,7.65
2023-04-27T01:20:30.379Z,6.35
2023-04-27T01:22:58.518Z,12.63
2023-04-27T01:25:25.873Z,8.90
2023-04-27T01:27:53.733Z,9.20
2023-04-27T01:30:22.519Z,6.88
2023-04-27T01:32:50.190Z,7.95
2023-04-27T01:35:19.468Z,7.55
2023-04-27T01:37:46.374Z,12.43
2023-04-27T01:40:13.646Z,7.63
2023-04-27T01:42:40.832Z,17.58
2023-04-27T01:45:09.463Z,10.00
2023-04-27T01:47:36.399Z,12.32
2023-04-27T01:50:03.962Z,9.65
2023-04-27T01:52:31.271Z,7.88
2023-04-27T01:54:59.308Z,13.05
2023-04-27T01:57:27.010Z,13.95
2023-04-27T01:59:55.481Z,11.18
2023-04-27T02:02:22.479Z,7.80
2023-04-27T02:04:49.516Z,6.95
2023-04-27T02:07:16.479Z,11.30
2023-04-27T02:09:43.407Z,6.47
2023-04-27T02:12:13.433Z,7.93
2023-04-27T02:14:40.288Z,10.45
2023-04-27T02:17:07.251Z,5.70
2023-04-27T02:19:34.172Z,9.43
2023-04-27T02:22:01.558Z,8.27
2023-04-27T02:24:28.550Z,9.20
2023-04-27T02:26:55.484Z,8.50
2023-04-27T02:29:22.397Z,8.50
2023-04-27T02:31:49.851Z,5.38
2023-04-27T02:34:16.742Z,9.25
2023-04-27T02:36:43.581Z,9.20
2023-04-27T02:39:10.514Z,9.52
2023-04-27T02:41:38.532Z,11.57
2023-04-27T02:44:05.509Z,7.18
2023-04-27T02:46:32.541Z,12.70
2023-04-27T02:48:59.374Z,8.02
2023-04-27T02:51:26.978Z,6.43
2023-04-27T02:53:54.397Z,10.27
2023-04-27T02:56:21.292Z,10.68
2023-04-27T02:58:48.178Z,12.77
2023-04-27T03:01:17.317Z,8.05
2023-04-27T03:03:48.122Z,8.35
2023-04-27T03:06:15.587Z,7.57
2023-04-27T03:08:42.733Z,7.13
2023-04-27T03:11:09.726Z,12.82
2023-04-27T03:13:42.010Z,7.22
2023-04-27T03:16:12.076Z,6.55
2023-04-27T03:21:08.125Z,6.50
2023-04-27T03:23:35.447Z,8.27
2023-04-27T03:26:08.725Z,6.93
2023-04-27T03:28:35.878Z,8.27
2023-04-27T03:31:20.674Z,9.40
2023-04-27T03:33:47.578Z,8.05
2023-04-27T03:36:15.952Z,11.18
2023-04-27T03:38:42.920Z,6.78
2023-04-27T03:41:09.906Z,10.23
2023-04-27T03:43:37.019Z,9.20
2023-04-27T03:46:03.931Z,8.85
2023-04-27T03:48:30.992Z,12.48
2023-04-27T03:50:57.935Z,7.53
2023-04-27T03:53:25.080Z,16.67
2023-04-27T03:55:52.229Z,7.30
2023-04-27T03:58:19.200Z,10.00
2023-04-27T04:01:06.477Z,7.07
2023-04-27T04:03:33.696Z,6.65
2023-04-27T04:06:01.326Z,6.60
2023-04-27T04:08:28.673Z,9.32
2023-04-27T04:10:56.936Z,7.45
2023-04-27T04:13:25.267Z,7.20
2023-04-27T04:16:04.568Z,11.57
2023-04-27T04:18:31.702Z,7.03
2023-04-27T04:20:58.886Z,8.70
2023-04-27T04:23:26.875Z,6.93
2023-04-27T04:25:56.378Z,8.18
2023-04-27T04:28:58.065Z,9.30
2023-04-27T04:31:25.080Z,9.00
2023-04-27T04:33:52.045Z,10.60
2023-04-27T04:36:19.050Z,7.50
2023-04-27T04:38:46.092Z,8.93
2023-04-27T04:41:12.988Z,8.27
2023-04-27T04:43:40.934Z,5.88
2023-04-27T04:46:07.921Z,6.45
2023-04-27T04:48:34.976Z,7.82
2023-04-27T04:51:01.826Z,11.88
2023-04-27T04:53:29.572Z,5.55
2023-04-27T04:55:56.507Z,6.40
2023-04-27T04:58:23.427Z,8.93
2023-04-27T05:00:50.622Z,8.57
2023-04-27T05:03:17.773Z,10.00
2023-04-27T05:05:44.821Z,6.93
2023-04-27T05:08:11.647Z,6.88
2023-04-27T05:10:38.480Z,6.82
2023-04-27T05:13:07.056Z,7.70
2023-04-27T05:15:34.121Z,8.27
2023-04-27T05:18:01.039Z,8.85
2023-04-27T05:20:27.939Z,8.63
2023-04-27T05:22:54.769Z,11.50
2023-04-27T05:25:21.605Z,7.35
2023-04-27T05:27:48.432Z,8.27
2023-04-27T05:30:15.576Z,7.28
2023-04-27T05:32:42.427Z,8.73
2023-04-27T05:35:09.922Z,9.07
2023-04-27T05:37:36.941Z,11.43
2023-04-27T05:40:05.994Z,11.10
2023-04-27T05:42:33.146Z,11.98
2023-04-27T05:45:00.043Z,13.73
2023-04-27T05:47:26.942Z,11.10
2023-04-27T05:49:55.206Z,12.70
2023-04-27T05:52:22.340Z,6.97
2023-04-27T05:54:50.495Z,8.95
2023-04-27T05:57:17.502Z,15.15
2023-04-27T05:59:44.420Z,11.68
2023-04-27T06:02:11.425Z,11.60
2023-04-27T06:04:38.534Z,10.38
2023-04-27T06:07:16.346Z,7.90
2023-04-27T06:09:43.333Z,11.57
2023-04-27T06:12:10.508Z,11.80
2023-04-27T06:14:38.147Z,14.77
2023-04-27T06:17:05.053Z,18.17
2023-04-27T06:19:31.992Z,15.85
2023-04-27T06:21:58.865Z,13.10
2023-04-27T06:24:25.742Z,10.63
2023-04-27T06:26:52.651Z,9.55
2023-04-27T06:29:19.539Z,18.15
2023-04-27T06:31:47.312Z,19.38
2023-04-27T06:34:14.316Z,11.55
2023-04-27T06:36:41.300Z,18.67
2023-04-27T06:39:08.177Z,16.33
2023-04-27T06:41:35.171Z,21.17
2023-04-27T06:44:02.451Z,16.20
2023-04-27T06:46:29.350Z,18.70
2023-04-27T06:48:56.360Z,25.70
2023-04-27T06:51:23.185Z,10.07
2023-04-27T06:53:50.044Z,20.23
2023-04-27T06:56:17.219Z,22.92
2023-04-27T06:58:44.121Z,16.88
2023-04-27T07:01:11.098Z,15.73
2023-04-27T07:03:38.300Z,18.33
2023-04-27T07:06:05.852Z,16.65
2023-04-27T07:08:33.939Z,22.23
2023-04-27T07:11:00.971Z,13.50
2023-04-27T07:13:27.899Z,17.45
2023-04-27T07:15:57.957Z,20.73
2023-04-27T07:18:26.019Z,14.50
2023-04-27T07:20:52.880Z,17.55
2023-04-27T07:23:19.697Z,14.20
2023-04-27T07:25:46.687Z,14.13
2023-04-27T07:28:13.506Z,14.43
2023-04-27T07:30:41.675Z,16.42
2023-04-27T07:33:09.943Z,14.30
2023-04-27T07:35:37.228Z,16.83
2023-04-27T07:38:04.078Z,9.73
2023-04-27T07:40:32.813Z,18.27
2023-04-27T07:42:59.929Z,17.35
2023-04-27T07:45:33.617Z,18.25
2023-04-27T07:48:02.378Z,16.58
2023-04-27T07:50:32.064Z,10.25
2023-04-27T07:52:59.499Z,9.53
2023-04-27T07:55:26.799Z,13.88
2023-04-27T07:57:54.481Z,13.95
2023-04-27T08:00:22.365Z,10.07
2023-04-27T08:02:50.721Z,9.80
2023-04-27T08:05:18.352Z,11.77
2023-04-27T08:07:45.968Z,9.45
2023-04-27T08:10:13.523Z,11.70
2023-04-27T08:12:40.649Z,8.38
2023-04-27T08:15:08.373Z,13.48
2023-04-27T08:17:36.453Z,6.28
2023-04-27T08:20:04.028Z,14.65
2023-04-27T08:22:31.526Z,10.77
2023-04-27T08:24:58.409Z,10.60
2023-04-27T08:27:25.333Z,11.32
2023-04-27T08:29:52.553Z,14.77
2023-04-27T08:32:19.416Z,8.75
2023-04-27T08:34:46.554Z,8.25
2023-04-27T08:37:13.824Z,10.52
2023-04-27T08:39:40.720Z,11.73
2023-04-27T08:42:12.236Z,10.15
2023-04-27T08:44:40.341Z,8.75
2023-04-27T08:47:08.867Z,9.45
2023-04-27T08:49:38.946Z,9.45
2023-04-27T08:52:13.805Z,16.73
2023-04-27T08:54:41.274Z,10.63
2023-04-27T08:57:15.828Z,12.88
2023-04-27T08:59:46.073Z,13.63
2023-04-27T09:02:22.071Z,11.73
2023-04-27T09:04:49.308Z,6.75
2023-04-27T09:07:18.192Z,7.75
2023-04-27T09:09:46.145Z,4.75
2023-04-27T09:12:20.965Z,6.78
2023-04-27T09:15:05.298Z,14.88
2023-04-27T09:17:33.708Z,14.63
2023-04-27T09:20:13.432Z,9.57
2023-04-27T09:22:47.762Z,6.95
2023-04-27T09:25:29.410Z,6.38
2023-04-27T09:27:58.343Z,10.52
2023-04-27T09:30:29.169Z,10.02
2023-04-27T09:33:01.767Z,10.80
2023-04-27T09:35:33.527Z,11.95
2023-04-27T09:38:01.585Z,17.15
2023-04-27T09:40:31.235Z,6.45
2023-04-27T09:43:04.034Z,7.13
2023-04-27T09:45:33.289Z,6.32
2023-04-27T09:48:01.864Z,4.57
2023-04-27T09:50:28.858Z,6.78
2023-04-27T09:52:56.408Z,6.93
2023-04-27T09:55:28.461Z,5.25
2023-04-27T09:58:33.200Z,11.32
2023-04-27T10:01:26.243Z,5.90
2023-04-27T10:04:30.239Z,8.02
2023-04-27T10:07:04.847Z,8.48
2023-04-27T10:09:37.076Z,5.45
2023-04-27T10:12:20.198Z,9.52
2023-04-27T10:14:59.090Z,13.60
2023-04-27T10:17:27.005Z,10.10
2023-04-27T10:19:59.374Z,7.60
2023-04-27T10:22:47.460Z,16.65
2023-04-27T10:25:24.046Z,10.57
2023-04-27T10:27:58.272Z,6.68
2023-04-27T10:30:31.589Z,10.55
2023-04-27T10:33:03.939Z,9.98
2023-04-27T10:35:33.664Z,7.35
2023-04-27T10:38:18.569Z,7.10
2023-04-27T10:40:54.442Z,10.23
2023-04-27T10:43:29.474Z,8.13
2023-04-27T10:46:11.668Z,8.02
2023-04-27T10:48:43.489Z,8.57
2023-04-27T10:51:15.415Z,4.95
2023-04-27T10:53:42.423Z,6.63
2023-04-27T10:56:09.701Z,8.23
2023-04-27T10:58:48.354Z,10.23
2023-04-27T11:01:27.029Z,3.80
2023-04-27T11:03:57.986Z,9.70
2023-04-27T11:06:25.178Z,5.82
2023-04-27T11:08:52.211Z,11.70
2023-04-27T11:11:19.648Z,12.10
2023-04-27T11:13:49.675Z,8.38
2023-04-27T11:16:17.146Z,5.88
2023-04-27T11:18:44.013Z,6.97
2023-04-27T11:21:10.900Z,8.77
2023-04-27T11:23:39.085Z,15.00
2023-04-27T11:26:25.191Z,6.10
2023-04-27T11:28:58.819Z,6.50
2023-04-27T11:31:38.896Z,10.45
2023-04-27T11:34:07.835Z,13.70
2023-04-27T11:36:35.059Z,9.23
2023-04-27T11:39:02.264Z,7.25
2023-04-27T11:41:36.780Z,8.10
2023-04-27T11:44:11.364Z,6.75
2023-04-27T11:46:38.798Z,8.00
2023-04-27T11:49:08.873Z,12.88
2023-04-27T11:51:38.692Z,10.18
2023-04-27T11:54:07.305Z,4.00
2023-04-27T11:56:36.302Z,7.57
2023-04-27T11:59:03.619Z,6.60
2023-04-27T12:01:37.965Z,8.48
2023-04-27T12:04:05.571Z,7.30
2023-04-27T12:06:33.756Z,4.57
2023-04-27T12:09:01.285Z,5.07
2023-04-27T12:11:28.306Z,6.97
2023-04-27T12:13:56.184Z,10.73
2023-04-27T12:16:23.310Z,6.07
2023-04-27T12:18:50.533Z,7.00
2023-04-27T12:21:18.038Z,8.13
2023-04-27T12:23:45.058Z,4.70
2023-04-27T12:26:14.988Z,11.43
2023-04-27T12:31:13.305Z,9.00
2023-04-27T12:33:40.236Z,7.25
2023-04-27T12:36:07.432Z,6.88
2023-04-27T12:38:34.266Z,8.35
2023-04-27T12:41:02.527Z,6.93
2023-04-27T12:43:29.395Z,7.55
2023-04-27T12:45:56.308Z,5.35
2023-04-27T12:48:23.792Z,8.98
2023-04-27T12:50:50.939Z,7.88
2023-04-27T12:53:17.829Z,7.78
2023-04-27T12:55:44.888Z,7.40
2023-04-27T12:58:11.910Z,5.93
2023-04-27T13:00:38.812Z,7.82
2023-04-27T13:03:06.936Z,7.22
2023-04-27T13:05:33.952Z,5.10
2023-04-27T13:08:00.798Z,9.65
2023-04-27T13:10:29.621Z,6.78
2023-04-27T13:12:57.035Z,6.18
2023-04-27T13:15:23.917Z,6.15
2023-04-27T13:17:53.223Z,5.35
2023-04-27T13:20:20.676Z,3.00
2023-04-27T13:22:48.201Z,9.80
2023-04-27T13:25:16.620Z,7.78
2023-04-27T13:27:43.538Z,4.32
2023-04-27T13:30:10.684Z,8.50
2023-04-27T13:32:37.667Z,5.15
2023-04-27T13:35:05.498Z,19.77
2023-04-27T13:37:32.495Z,7.32
2023-04-27T13:39:59.321Z,5.82
2023-04-27T13:42:29.390Z,7.55
2023-04-27T13:44:57.094Z,7.07
2023-04-27T13:47:23.959Z,11.65
2023-04-27T13:49:50.892Z,6.07
2023-04-27T13:52:17.772Z,6.57
2023-04-27T13:54:44.582Z,5.72
2023-04-27T13:57:11.489Z,8.57
2023-04-27T13:59:38.441Z,4.78
2023-04-27T14:02:05.454Z,3.80
2023-04-27T14:04:32.571Z,6.78
2023-04-27T14:06:59.676Z,5.35
2023-04-27T14:09:27.318Z,8.15
2023-04-27T14:11:57.216Z,4.57
2023-04-27T14:14:24.742Z,5.55
2023-04-27T14:16:52.088Z,8.30
2023-04-27T14:19:20.678Z,8.43
2023-04-27T14:21:49.566Z,11.82
2023-04-27T14:24:16.528Z,9.10
2023-04-27T14:26:44.274Z,5.95
2023-04-27T14:29:11.900Z,7.90
2023-04-27T14:31:39.783Z,7.05
2023-04-27T14:34:07.551Z,6.35
2023-04-27T14:36:34.749Z,10.60
2023-04-27T14:39:02.018Z,14.18
2023-04-27T14:41:28.934Z,4.30
2023-04-27T14:43:56.034Z,9.90
2023-04-27T14:46:23.331Z,10.35
2023-04-27T14:48:51.480Z,10.70
2023-04-27T14:51:18.797Z,9.27
2023-04-27T14:53:46.138Z,7.45
2023-04-27T14:56:13.361Z,8.75
2023-04-27T14:58:41.464Z,5.45
2023-04-27T15:01:08.857Z,5.50
2023-04-27T15:03:36.144Z,8.43
2023-04-27T15:06:03.523Z,7.20
2023-04-27T15:08:32.699Z,7.03
2023-04-27T15:11:01.127Z,7.82
2023-04-27T15:13:28.735Z,5.43
2023-04-27T15:15:59.264Z,3.28
2023-04-27T15:18:26.314Z,12.52
2023-04-27T15:20:53.558Z,4.93
2023-04-27T15:23:21.686Z,7.82
2023-04-27T15:25:49.893Z,11.02
2023-04-27T15:28:18.173Z,4.43
2023-04-27T15:30:45.738Z,4.30
2023-04-27T15:33:14.018Z,5.97
2023-04-27T15:35:41.462Z,4.65
2023-04-27T15:38:11.166Z,9.40
2023-04-27T15:40:38.811Z,6.63
2023-04-27T15:43:06.065Z,14.75
2023-04-27T15:45:33.724Z,4.32
2023-04-27T15:48:01.492Z,6.60
2023-04-27T15:50:28.841Z,13.07
2023-04-27T15:52:56.236Z,4.65
2023-04-27T15:55:23.573Z,6.93
2023-04-27T15:57:50.718Z,5.15
2023-04-27T16:00:18.979Z,5.60
2023-04-27T16:02:46.974Z,6.72
2023-04-27T16:05:14.667Z,9.73
2023-04-27T16:07:43.361Z,6.88
2023-04-27T16:10:11.545Z,6.05
2023-04-27T16:12:38.832Z,4.90
2023-04-27T16:15:08.465Z,9.25
2023-04-27T16:17:37.323Z,8.70
2023-04-27T16:20:06.874Z,6.10
2023-04-27T16:22:34.720Z,9.80
2023-04-27T16:25:02.060Z,7.13
2023-04-27T16:27:28.909Z,4.85
2023-04-27T16:29:56.582Z,7.03
2023-04-27T16:32:24.023Z,6.50
2023-04-27T16:34:51.028Z,5.03
2023-04-27T16:37:17.911Z,7.00
2023-04-27T16:39:45.268Z,6.72
2023-04-27T16:42:16.306Z,8.75
2023-04-27T16:44:43.109Z,13.40
2023-04-27T16:47:10.488Z,8.27
2023-04-27T16:49:37.835Z,6.20
2023-04-27T16:52:05.204Z,6.22
2023-04-27T16:54:32.594Z,10.45
2023-04-27T16:56:59.557Z,3.25
2023-04-27T16:59:26.645Z,6.80
2023-04-27T17:01:53.614Z,7.03
2023-04-27T17:04:20.814Z,7.35
2023-04-27T17:06:48.599Z,3.75
2023-04-27T17:09:15.683Z,6.63
2023-04-27T17:11:42.946Z,5.20
2023-04-27T17:14:09.965Z,6.80
2023-04-27T17:16:36.972Z,4.20
2023-04-27T17:19:03.944Z,8.20
2023-04-27T17:21:31.706Z,11.77
2023-04-27T17:23:58.985Z,5.38
2023-04-27T17:26:26.143Z,10.32
2023-04-27T17:28:55.040Z,6.05
2023-04-27T17:31:21.913Z,5.88
2023-04-27T17:33:49.363Z,5.55
2023-04-27T17:36:16.357Z,4.78
2023-04-27T17:38:43.706Z,5.68
2023-04-27T17:41:10.868Z,9.23
2023-04-27T17:43:38.012Z,5.57
2023-04-27T17:46:09.953Z,8.75
2023-04-27T17:48:37.902Z,8.07
2023-04-27T17:51:04.851Z,9.40
2023-04-27T17:53:32.171Z,4.10
2023-04-27T17:55:59.491Z,7.50
2023-04-27T17:58:28.014Z,7.45
2023-04-27T18:00:55.162Z,7.55
2023-04-27T18:03:22.639Z,8.25
2023-04-27T18:05:49.710Z,5.18
2023-04-27T18:08:16.955Z,6.55
2023-04-27T18:10:44.038Z,5.30
2023-04-27T18:13:11.245Z,10.48
2023-04-27T18:15:38.449Z,4.00
2023-04-27T18:18:06.489Z,7.85
2023-04-27T18:20:33.783Z,4.25
2023-04-27T18:23:01.130Z,3.75
2023-04-27T18:25:28.184Z,8.23
2023-04-27T18:27:56.097Z,4.07
2023-04-27T18:30:23.588Z,5.18
2023-04-27T18:32:50.450Z,7.07
2023-04-27T18:35:17.514Z,7.00
2023-04-27T18:37:48.427Z,7.40
2023-04-27T18:40:22.213Z,6.93
2023-04-27T18:42:50.140Z,7.18
2023-04-27T18:45:17.397Z,6.53
2023-04-27T18:47:44.306Z,8.23
2023-04-27T18:50:13.188Z,6.25
2023-04-27T18:52:40.029Z,4.53
2023-04-27T18:55:09.053Z,7.00
2023-04-27T18:57:36.676Z,7.13
2023-04-27T19:00:05.959Z,8.10
2023-04-27T19:02:36.398Z,5.13
2023-04-27T19:05:13.080Z,5.72
2023-04-27T19:07:40.875Z,6.03
2023-04-27T19:10:08.562Z,6.10
2023-04-27T19:12:35.982Z,10.52
2023-04-27T19:15:03.946Z,7.22
2023-04-27T19:17:31.515Z,10.27
2023-04-27T19:19:58.687Z,8.88
2023-04-27T19:22:27.191Z,6.28
2023-04-27T19:24:54.272Z,8.93
2023-04-27T19:27:21.999Z,10.77
2023-04-27T19:29:54.425Z,10.55
2023-04-27T19:32:22.126Z,5.53
2023-04-27T19:34:49.396Z,5.75
2023-04-27T19:37:16.746Z,5.88
2023-04-27T19:39:44.084Z,14.10
2023-04-27T19:42:11.335Z,23.83
2023-04-27T19:44:38.333Z,23.83
2023-04-27T19:47:06.758Z,21.73
2023-04-27T19:49:33.864Z,24.35
2023-04-27T19:52:00.972Z,33.78
2023-04-27T19:54:28.413Z,17.02
2023-04-27T19:56:56.125Z,14.13
2023-04-27T19:59:23.501Z,15.23
2023-04-27T20:01:50.348Z,31.13
2023-04-27T20:04:18.144Z,22.02
2023-04-27T20:06:46.332Z,23.25
2023-04-27T20:09:13.275Z,26.58
2023-04-27T20:11:40.377Z,12.50
2023-04-27T20:14:07.674Z,13.48
2023-04-27T20:16:34.552Z,16.70
2023-04-27T20:19:01.476Z,19.25
2023-04-27T20:21:29.363Z,17.58
2023-04-27T20:23:56.459Z,13.38
2023-04-27T20:26:24.445Z,30.13
2023-04-27T20:28:52.081Z,24.75
2023-04-27T20:31:19.149Z,47.17
2023-04-27T20:33:46.057Z,32.05
2023-04-27T20:36:17.765Z,29.90
2023-04-27T20:38:45.754Z,30.73
2023-04-27T20:41:13.058Z,13.63
2023-04-27T20:43:40.418Z,15.10
2023-04-27T20:46:08.243Z,36.40
2023-04-27T20:48:35.128Z,22.55
2023-04-27T20:51:02.240Z,11.43
2023-04-27T20:53:29.142Z,17.40
2023-04-27T20:55:56.927Z,12.95
2023-04-27T20:58:23.873Z,11.38
2023-04-27T21:00:51.484Z,14.27
2023-04-27T21:03:18.653Z,15.32
2023-04-27T21:05:47.329Z,13.60
2023-04-27T21:08:14.281Z,12.30
2023-04-27T21:10:41.708Z,12.52
2023-04-27T21:13:08.973Z,7.43
2023-04-27T21:15:36.052Z,5.05
2023-04-27T21:18:05.500Z,11.00
2023-04-27T21:23:01.689Z,9.90
2023-04-27T21:25:28.625Z,11.18
2023-04-27T21:27:55.456Z,8.13
2023-04-27T21:30:22.315Z,9.52
2023-04-27T21:32:49.680Z,4.47
2023-04-27T21:35:16.577Z,10.88
2023-04-27T21:37:43.439Z,6.95
2023-04-27T21:40:10.751Z,13.63
2023-04-27T21:42:38.111Z,7.65
2023-04-27T21:45:05.357Z,10.98
2023-04-27T21:47:32.665Z,5.25
2023-04-27T21:49:59.619Z,7.43
2023-04-27T21:52:26.506Z,7.80
2023-04-27T21:54:53.389Z,14.10
2023-04-27T21:57:20.331Z,7.60
2023-04-27T21:59:47.287Z,10.85
2023-04-27T22:02:14.211Z,6.35
2023-04-27T22:04:41.292Z,5.57
2023-04-27T22:07:08.676Z,7.45
2023-04-27T22:09:35.921Z,7.88
2023-04-27T22:12:03.017Z,8.05
2023-04-27T22:14:33.384Z,5.95
2023-04-27T22:19:28.651Z,6.25
2023-04-27T22:21:56.521Z,7.47
2023-04-27T22:24:23.766Z,12.52
2023-04-27T22:26:50.925Z,6.95
2023-04-27T22:29:18.225Z,9.65
2023-04-27T22:31:45.738Z,8.13
2023-04-27T22:34:13.446Z,8.55
2023-04-27T22:36:40.619Z,9.60
2023-04-27T22:39:08.273Z,7.78
2023-04-27T22:41:36.109Z,9.10
2023-04-27T22:44:03.060Z,6.65
2023-04-27T22:46:30.526Z,5.85
2023-04-27T22:48:58.664Z,12.95
2023-04-27T22:51:27.541Z,9.45
2023-04-27T22:53:54.793Z,10.10
2023-04-27T22:56:22.539Z,7.28
2023-04-27T22:58:49.571Z,8.00
2023-04-27T23:01:17.108Z,10.18
2023-04-27T23:03:44.221Z,7.95
2023-04-27T23:06:14.512Z,7.18
2023-04-27T23:08:43.071Z,11.68
2023-04-27T23:11:13.580Z,8.52
2023-04-27T23:13:40.474Z,6.17
2023-04-27T23:16:09.627Z,8.73
2023-04-27T23:18:36.574Z,6.10
2023-04-27T23:21:03.603Z,7.65
2023-04-27T23:23:30.933Z,4.07
2023-04-27T23:25:57.720Z,9.93
2023-04-27T23:28:24.645Z,13.68
2023-04-27T23:30:55.110Z,8.73
2023-04-27T23:33:22.207Z,9.55
2023-04-27T23:35:49.490Z,10.52
2023-04-27T23:38:16.443Z,10.13
2023-04-27T23:40:43.281Z,6.82
2023-04-27T23:43:10.606Z,13.57
2023-04-27T23:45:37.671Z,15.13
2023-04-27T23:48:05.119Z,7.47
2023-04-27T23:50:32.527Z,14.15
2023-04-27T23:53:00.034Z,12.23
2023-04-27T23:55:26.923Z,12.23
2023-04-27T23:57:53.781Z,10.48
